Time;durP1;ratioP1;P1;durP2;ratioP2;P2;SDS_P1;SDS_P2;PMS_P1;PMS_P2;Temp;Humidity;BMP_temperature;BMP_pressure;BME280_temperature;BME280_humidity;BME280_pressure;Samples;Min_cycle;Max_cycle;Signal;HPM_P1;HPM_P2
2021/01/12 00:00:20;;;;;;;;;;;;;;;11.92;64.31;100858.09;4966575;28;19925;-89
2021/01/12 00:02:45;;;;;;;;;;;;;;;11.95;64.17;100857.97;4966152;28;20020;-90
2021/01/12 00:05:11;;;;;;;;;;;;;;;10.81;68.60;100844.78;4967093;28;19985;-90
2021/01/12 00:07:36;;;;;;;;;;;;;;;11.38;65.81;100841.94;4966593;28;20417;-90
2021/01/12 00:10:02;;;;;;;;;;;;;;;11.93;64.35;100838.22;4966819;28;20001;-89
2021/01/12 00:12:27;;;;;;;;;;;;;;;11.93;64.64;100834.63;4966608;28;19927;-89
2021/01/12 00:14:52;;;;;;;;;;;;;;;11.76;65.07;100838.19;4966778;28;19965;-92
2021/01/12 00:17:18;;;;;;;;;;;;;;;11.50;66.21;100826.88;4966905;28;19929;-90
2021/01/12 00:19:43;;;;;;;;;;;;;;;10.93;68.45;100825.22;4967062;28;19925;-91
2021/01/12 00:22:16;;;;;;;;;;;;;;;11.84;65.08;100804.31;4966526;28;19927;-91
2021/01/12 00:24:44;;;;;;;;;;;;;;;11.94;65.20;100807.44;4985191;28;19942;-93
2021/01/12 00:27:09;;;;;;;;;;;;;;;11.75;65.66;100807.50;4968762;28;19918;-93
2021/01/12 00:29:35;;;;;;;;;;;;;;;11.56;66.91;100809.44;4968474;28;19918;-94
2021/01/12 00:32:00;;;;;;;;;;;;;;;11.42;67.41;100797.47;4985618;28;19918;-92
2021/01/12 00:34:26;;;;;;;;;;;;;;;11.87;64.67;100803.28;4968497;28;19918;-92
2021/01/12 00:36:51;;;;;;;;;;;;;;;11.28;67.46;100784.66;4971297;28;19918;-91
2021/01/12 00:39:18;;;;;;;;;;;;;;;11.70;65.83;100777.94;4989297;28;19919;-90
2021/01/12 00:42:07;;;;;;;;;;;;;;;11.22;67.13;100784.97;4972971;28;19931;-95
2021/01/12 00:44:32;;;;;;;;;;;;;;;10.72;69.20;100781.16;4974060;28;19918;-90
2021/01/12 00:47:06;;;;;;;;;;;;;;;11.65;66.91;100771.88;4971285;28;19986;-91
2021/01/12 00:49:31;;;;;;;;;;;;;;;11.94;65.25;100761.34;4968613;28;19946;-92
2021/01/12 00:51:58;;;;;;;;;;;;;;;12.26;64.32;100755.06;4968065;28;19918;-92
2021/01/12 00:54:26;;;;;;;;;;;;;;;12.46;63.94;100751.25;4968039;28;19918;-93
2021/01/12 00:56:52;;;;;;;;;;;;;;;12.11;64.40;100743.25;4967899;28;19918;-91
2021/01/12 00:59:18;;;;;;;;;;;;;;;12.17;64.33;100742.94;4969895;28;19925;-91
2021/01/12 01:01:44;;;;;;;;;;;;;;;12.44;63.92;100737.78;4971120;28;19918;-91
2021/01/12 01:04:12;;;;;;;;;;;;;;;11.79;65.65;100743.16;4971378;28;19918;-92
2021/01/12 01:06:41;;;;;;;;;;;;;;;12.03;65.39;100743.69;4971816;28;19918;-92
2021/01/12 01:09:06;;;;;;;;;;;;;;;12.20;64.90;100730.06;4971523;28;19925;-91
2021/01/12 01:11:31;;;;;;;;;;;;;;;11.27;67.78;100738.69;4971580;28;19918;-90
2021/01/12 01:13:57;;;;;;;;;;;;;;;12.04;65.46;100727.31;4970801;28;20383;-91
2021/01/12 01:16:32;;;;;;;;;;;;;;;12.58;63.85;100716.13;4971561;28;19950;-93
2021/01/12 01:19:07;;;;;;;;;;;;;;;12.55;64.25;100720.88;4989551;28;19957;-92
2021/01/12 01:21:36;;;;;;;;;;;;;;;12.56;63.80;100714.47;4977583;28;19918;-92
2021/01/12 01:24:01;;;;;;;;;;;;;;;12.20;64.57;100718.34;4965448;28;19911;-90
2021/01/12 01:26:29;;;;;;;;;;;;;;;13.07;62.51;100697.91;4980910;28;19914;-92
2021/01/12 01:28:54;;;;;;;;;;;;;;;13.00;62.94;100694.69;4980297;28;19926;-90
2021/01/12 01:31:20;;;;;;;;;;;;;;;12.63;64.01;100698.72;4982026;28;19929;-90
2021/01/12 01:33:52;;;;;;;;;;;;;;;12.71;63.93;100701.84;4981360;28;19925;-91
2021/01/12 01:36:19;;;;;;;;;;;;;;;12.36;65.02;100697.50;4981264;28;19945;-90
2021/01/12 01:38:47;;;;;;;;;;;;;;;12.50;63.83;100699.44;4981065;28;19918;-89
2021/01/12 01:41:32;;;;;;;;;;;;;;;;;;;;;
2021/01/12 01:49:38;;;;;;;;;;;;;;;12.14;66.01;100688.84;5232406;23;19929;-89
2021/01/12 01:52:07;;;;;;;;;;;;;;;12.02;66.70;100688.59;4980212;28;19914;-92
2021/01/12 01:54:48;;;;;;;;;;;;;;;12.53;64.60;100679.38;4976315;28;20331;-92
2021/01/12 01:57:13;;;;;;;;;;;;;;;12.38;64.86;100676.59;5015028;23;19932;-90
2021/01/12 01:59:39;;;;;;;;;;;;;;;12.85;64.82;100691.06;4969479;29;19922;-92
2021/01/12 02:02:07;;;;;;;;;;;;;;;12.22;66.07;100684.75;4969555;29;19926;-90
2021/01/12 02:04:39;;;;;;;;;;;;;;;12.57;64.99;100695.38;4969935;29;19977;-90
2021/01/12 02:07:09;;;;;;;;;;;;;;;12.60;64.66;100672.63;4969329;29;19903;-90
2021/01/12 02:09:53;;;;;;;;;;;;;;;12.43;65.52;100668.19;4969315;28;19926;-89
2021/01/12 02:12:34;;;;;;;;;;;;;;;12.04;66.14;100664.09;4969548;29;19922;-89
2021/01/12 02:15:02;;;;;;;;;;;;;;;12.38;65.51;100659.47;4968583;29;19918;-89
2021/01/12 02:17:29;;;;;;;;;;;;;;;12.62;64.67;100662.56;4968827;29;19930;-90
2021/01/12 02:19:55;;;;;;;;;;;;;;;12.13;67.05;100669.00;4969139;29;19919;-89
2021/01/12 02:22:22;;;;;;;;;;;;;;;12.31;66.20;100650.78;4968678;29;20407;-89
2021/01/12 02:24:53;;;;;;;;;;;;;;;12.85;64.17;100658.47;4968877;29;19929;-90
2021/01/12 02:27:24;;;;;;;;;;;;;;;12.68;65.13;100647.75;4969146;29;19929;-88
2021/01/12 02:29:50;;;;;;;;;;;;;;;12.86;65.06;100648.47;4968678;29;19919;-89
2021/01/12 02:32:24;;;;;;;;;;;;;;;11.84;67.73;100638.94;4969628;28;19926;-89
2021/01/12 02:34:52;;;;;;;;;;;;;;;12.29;65.97;100646.41;4969119;29;20009;-89
2021/01/12 02:37:20;;;;;;;;;;;;;;;12.46;65.62;100632.75;4969708;29;19994;-89
2021/01/12 02:39:55;;;;;;;;;;;;;;;12.88;64.47;100647.44;4968180;29;19915;-88
2021/01/12 02:42:20;;;;;;;;;;;;;;;12.18;66.65;100636.19;4968732;29;20420;-88
2021/01/12 02:44:46;;;;;;;;;;;;;;;13.35;62.76;100631.06;4966701;29;19918;-88
2021/01/12 02:47:11;;;;;;;;;;;;;;;12.97;64.70;100627.00;4964189;29;19919;-90
2021/01/12 02:49:54;;;;;;;;;;;;;;;12.81;64.86;100615.31;4964707;29;19922;-90
2021/01/12 02:52:30;;;;;;;;;;;;;;;12.48;65.82;100621.81;4964371;29;19969;-89
2021/01/12 02:55:10;;;;;;;;;;;;;;;13.77;61.63;100616.56;4963792;29;20381;-90
2021/01/12 03:00:14;;;;;;;;;;;;;;;13.34;62.92;100604.84;5041925;23;19926;-89
2021/01/12 03:02:40;;;;;;;;;;;;;;;12.58;64.92;100604.88;4957553;23;19965;-89
2021/01/12 03:05:09;;;;;;;;;;;;;;;12.30;66.15;100594.78;4983043;28;19933;-89
2021/01/12 03:07:54;;;;;;;;;;;;;;;13.01;64.25;100584.22;4966988;28;19918;-90
2021/01/12 03:10:19;;;;;;;;;;;;;;;12.68;65.82;100588.94;4967213;28;19968;-88
2021/01/12 03:12:45;;;;;;;;;;;;;;;12.37;66.50;100584.47;4967006;28;19921;-89
2021/01/12 03:15:15;;;;;;;;;;;;;;;12.47;65.98;100573.91;4966898;28;19961;-90
2021/01/12 03:17:40;;;;;;;;;;;;;;;13.18;63.81;100577.72;4967658;28;19918;-91
2021/01/12 03:20:06;;;;;;;;;;;;;;;12.64;65.57;100571.06;4966399;28;19918;-90
2021/01/12 03:22:31;;;;;;;;;;;;;;;12.78;64.78;100567.50;4967181;28;19989;-90
2021/01/12 03:24:57;;;;;;;;;;;;;;;12.90;65.16;100574.88;4967094;28;19929;-90
2021/01/12 03:27:22;;;;;;;;;;;;;;;13.11;63.75;100563.66;4966635;28;19922;-90
2021/01/12 03:29:50;;;;;;;;;;;;;;;12.87;64.73;100556.06;4966833;28;19960;-88
2021/01/12 03:32:18;;;;;;;;;;;;;;;12.18;66.43;100565.66;4965840;28;19918;-90
2021/01/12 03:34:44;;;;;;;;;;;;;;;13.06;64.91;100544.94;4966742;28;19926;-89
2021/01/12 03:37:09;;;;;;;;;;;;;;;13.29;63.70;100553.47;4966289;28;19949;-90
2021/01/12 03:39:34;;;;;;;;;;;;;;;12.94;64.18;100552.03;4966754;28;20377;-90
2021/01/12 03:42:09;;;;;;;;;;;;;;;13.50;62.86;100562.13;4967350;28;19925;-90
2021/01/12 03:44:34;;;;;;;;;;;;;;;12.68;65.55;100550.94;4967124;28;20379;-89
2021/01/12 03:47:03;;;;;;;;;;;;;;;12.47;66.41;100541.34;4966605;28;19922;-89
2021/01/12 03:49:28;;;;;;;;;;;;;;;12.89;65.24;100539.69;4967981;28;19942;-89
2021/01/12 03:51:53;;;;;;;;;;;;;;;12.48;66.26;100537.69;4967433;28;19922;-90
2021/01/12 03:54:19;;;;;;;;;;;;;;;13.05;64.79;100528.75;4984573;28;19945;-90
2021/01/12 03:56:45;;;;;;;;;;;;;;;13.01;64.50;100525.34;4967322;28;20372;-89
2021/01/12 03:59:13;;;;;;;;;;;;;;;12.38;66.00;100527.41;4966787;28;19918;-89
2021/01/12 04:01:43;;;;;;;;;;;;;;;12.64;66.24;100527.66;4966525;28;20005;-89
2021/01/12 04:04:09;;;;;;;;;;;;;;;12.55;66.56;100514.66;4966633;28;19926;-89
2021/01/12 04:06:34;;;;;;;;;;;;;;;12.21;66.96;100519.38;4984821;28;19925;-90
2021/01/12 04:09:00;;;;;;;;;;;;;;;12.74;65.73;100504.41;4967432;28;20383;-89
2021/01/12 04:11:30;;;;;;;;;;;;;;;12.41;66.78;100510.94;4967143;28;20070;-88
2021/01/12 04:13:55;;;;;;;;;;;;;;;12.47;66.77;100511.50;4966857;28;20399;-89
2021/01/12 04:16:24;;;;;;;;;;;;;;;12.37;66.97;100509.38;4967547;28;19918;-89
2021/01/12 04:18:49;;;;;;;;;;;;;;;12.96;65.06;100494.91;4966340;28;19946;-88
2021/01/12 04:21:25;;;;;;;;;;;;;;;12.28;67.30;100492.78;4966538;28;20284;-89
2021/01/12 04:23:50;;;;;;;;;;;;;;;12.69;66.30;100497.50;4967280;28;19918;-89
2021/01/12 04:26:16;;;;;;;;;;;;;;;12.30;66.93;100480.00;4966436;28;20324;-89
2021/01/12 04:31:15;;;;;;;;;;;;;;;12.97;64.72;100483.09;4943821;29;19934;-90
2021/01/12 04:33:41;;;;;;;;;;;;;;;13.22;64.69;100473.34;4947863;29;19919;-90
2021/01/12 04:36:09;;;;;;;;;;;;;;;12.45;66.46;100479.06;4947397;29;19923;-91
2021/01/12 04:38:34;;;;;;;;;;;;;;;12.29;67.77;100467.38;4947481;29;19927;-87
2021/01/12 04:40:59;;;;;;;;;;;;;;;12.53;67.06;100459.56;4947021;29;19958;-89
2021/01/12 04:43:25;;;;;;;;;;;;;;;12.62;66.44;100459.03;4947438;29;19919;-87
2021/01/12 04:45:50;;;;;;;;;;;;;;;13.09;64.81;100452.41;4947226;29;19934;-88
2021/01/12 04:48:15;;;;;;;;;;;;;;;12.44;66.19;100452.91;4946574;29;19927;-88
2021/01/12 04:50:40;;;;;;;;;;;;;;;12.71;66.57;100455.75;4946994;29;20321;-88
2021/01/12 04:53:06;;;;;;;;;;;;;;;12.51;66.48;100467.81;4945981;29;19923;-87
2021/01/12 04:55:31;;;;;;;;;;;;;;;12.73;65.89;100440.22;4947010;29;19919;-87
2021/01/12 04:57:56;;;;;;;;;;;;;;;12.03;68.07;100462.59;4947000;29;19965;-88
2021/01/12 05:00:25;;;;;;;;;;;;;;;12.97;65.63;100453.22;4947330;29;19927;-88
2021/01/12 05:03:06;;;;;;;;;;;;;;;12.65;66.76;100444.38;4948732;29;19966;-88
2021/01/12 05:05:35;;;;;;;;;;;;;;;12.89;65.95;100463.66;4949901;29;19919;-89
2021/01/12 05:08:02;;;;;;;;;;;;;;;12.73;65.64;100451.06;4953313;29;19961;-91
2021/01/12 05:10:30;;;;;;;;;;;;;;;12.31;66.91;100462.75;4954181;29;19925;-89
2021/01/12 05:12:57;;;;;;;;;;;;;;;12.90;65.35;100473.56;4955266;29;19919;-88
2021/01/12 05:15:23;;;;;;;;;;;;;;;12.95;65.49;100471.44;4954267;29;20377;-89
2021/01/12 05:17:49;;;;;;;;;;;;;;;12.84;65.00;100472.09;4948418;29;19919;-89
2021/01/12 05:20:18;;;;;;;;;;;;;;;12.99;63.99;100474.84;4948074;29;20017;-89
2021/01/12 05:22:45;;;;;;;;;;;;;;;12.62;64.86;100467.19;4948490;29;19919;-90
2021/01/12 05:25:19;;;;;;;;;;;;;;;12.43;65.08;100466.56;4947098;29;19954;-88
2021/01/12 05:27:44;;;;;;;;;;;;;;;12.86;63.66;100472.91;4946794;29;19921;-90
2021/01/12 05:30:10;;;;;;;;;;;;;;;12.92;63.76;100474.34;4946377;29;19927;-89
2021/01/12 05:32:39;;;;;;;;;;;;;;;12.73;63.56;100464.66;4946761;29;19970;-89
2021/01/12 05:35:06;;;;;;;;;;;;;;;12.63;64.24;100477.03;4946219;29;19926;-88
2021/01/12 05:37:32;;;;;;;;;;;;;;;13.27;62.32;100472.09;4945167;29;19965;-89
2021/01/12 05:39:58;;;;;;;;;;;;;;;12.89;63.36;100469.09;4945693;29;19942;-89
2021/01/12 05:42:23;;;;;;;;;;;;;;;13.41;61.46;100465.78;4946422;29;20373;-89
2021/01/12 05:44:48;;;;;;;;;;;;;;;13.53;61.34;100466.81;4944456;29;19926;-89
2021/01/12 05:47:14;;;;;;;;;;;;;;;13.59;60.68;100470.97;4945649;29;19919;-89
2021/01/12 05:49:43;;;;;;;;;;;;;;;13.47;61.33;100473.53;4945350;29;19918;-89
2021/01/12 05:52:10;;;;;;;;;;;;;;;12.52;63.79;100474.13;4946662;29;19922;-89
2021/01/12 05:54:38;;;;;;;;;;;;;;;13.23;61.81;100481.41;4945017;29;19925;-88
2021/01/12 05:57:04;;;;;;;;;;;;;;;13.29;61.75;100478.28;4944689;29;19919;-89
2021/01/12 05:59:30;;;;;;;;;;;;;;;13.14;62.02;100471.13;4945235;29;19934;-88
2021/01/12 06:01:56;;;;;;;;;;;;;;;13.47;61.58;100473.53;4944486;29;19983;-89
2021/01/12 06:04:22;;;;;;;;;;;;;;;13.21;61.96;100479.75;4946005;29;19946;-90
2021/01/12 06:06:51;;;;;;;;;;;;;;;13.33;62.22;100487.13;4944894;29;20310;-89
2021/01/12 06:09:17;;;;;;;;;;;;;;;13.44;62.33;100478.31;4944947;29;19929;-89
2021/01/12 06:11:44;;;;;;;;;;;;;;;12.55;63.45;100482.09;4945046;29;19958;-88
2021/01/12 06:14:13;;;;;;;;;;;;;;;12.98;63.33;100482.09;4944802;29;19919;-88
2021/01/12 06:16:39;;;;;;;;;;;;;;;13.26;61.61;100486.63;4945589;29;19925;-89
2021/01/12 06:19:04;;;;;;;;;;;;;;;12.91;62.96;100489.75;4945742;29;19918;-88
2021/01/12 06:21:32;;;;;;;;;;;;;;;12.81;62.75;100494.03;4945831;29;19990;-90
2021/01/12 06:23:59;;;;;;;;;;;;;;;12.47;63.87;100495.22;4946221;29;19919;-90
2021/01/12 06:26:26;;;;;;;;;;;;;;;12.26;65.43;100503.72;4947704;29;19918;-89
2021/01/12 06:28:51;;;;;;;;;;;;;;;11.93;66.40;100504.78;4945211;29;19980;-89
2021/01/12 06:31:16;;;;;;;;;;;;;;;12.51;64.40;100510.38;4947762;29;19923;-89
2021/01/12 06:33:41;;;;;;;;;;;;;;;12.56;64.20;100508.22;4947938;29;19918;-88
2021/01/12 06:36:07;;;;;;;;;;;;;;;12.15;65.22;100515.22;4966237;29;19926;-89
2021/01/12 06:38:37;;;;;;;;;;;;;;;12.68;64.10;100517.47;4949553;29;19918;-90
2021/01/12 06:41:05;;;;;;;;;;;;;;;12.51;64.10;100526.66;4966075;29;19918;-91
2021/01/12 06:43:30;;;;;;;;;;;;;;;12.37;64.08;100533.78;4949292;29;19942;-91
2021/01/12 06:45:57;;;;;;;;;;;;;;;12.02;65.33;100531.34;4949830;29;19919;-91
2021/01/12 06:48:33;;;;;;;;;;;;;;;12.28;64.44;100537.03;4953085;29;19919;-92
2021/01/12 06:51:00;;;;;;;;;;;;;;;12.28;64.54;100534.34;4952015;29;19926;-91
2021/01/12 06:53:26;;;;;;;;;;;;;;;11.98;65.60;100545.16;4969983;29;19925;-91
2021/01/12 07:04:04;;;;;;;;;;;;;;;11.84;65.35;100537.81;5026563;23;19926;-92
2021/01/12 07:06:32;;;;;;;;;;;;;;;12.00;65.37;100544.13;4971069;28;19921;-86
2021/01/12 07:08:58;;;;;;;;;;;;;;;11.96;65.26;100539.81;4966282;28;19918;-87
2021/01/12 07:11:24;;;;;;;;;;;;;;;11.96;65.47;100545.25;4965810;28;20364;-89
2021/01/12 07:13:52;;;;;;;;;;;;;;;12.31;64.53;100539.56;4966983;28;19926;-91
2021/01/12 07:16:18;;;;;;;;;;;;;;;12.18;64.80;100541.25;4966955;28;19918;-90
2021/01/12 07:18:44;;;;;;;;;;;;;;;11.79;65.55;100556.16;4970105;28;19973;-91
2021/01/12 07:21:13;;;;;;;;;;;;;;;12.23;64.87;100556.31;4968729;28;19918;-88
2021/01/12 07:23:41;;;;;;;;;;;;;;;11.78;65.88;100559.84;4985146;28;19918;-92
2021/01/12 07:26:09;;;;;;;;;;;;;;;11.81;65.74;100560.53;4968317;28;20199;-90
2021/01/12 07:28:44;;;;;;;;;;;;;;;11.85;65.54;100569.34;4983714;28;19972;-89
2021/01/12 07:31:09;;;;;;;;;;;;;;;11.55;65.80;100571.97;4960193;28;20439;-88
2021/01/12 07:33:35;;;;;;;;;;;;;;;11.92;65.03;100589.72;4959695;28;19922;-89
2021/01/12 07:36:06;;;;;;;;;;;;;;;13.32;59.97;100591.31;4964025;28;19922;-91
2021/01/12 07:38:44;;;;;;;;;;;;;;;;;;;;;
2021/01/12 07:41:12;;;;;;;;;;;;;;;13.57;58.42;100608.81;4980853;28;20012;-89
2021/01/12 07:43:38;;;;;;;;;;;;;;;13.32;58.06;100615.78;4975314;28;19984;-91
2021/01/12 07:48:31;;;;;;;;;;;;;;;12.66;60.60;100617.97;5110944;23;19927;-89
2021/01/12 07:51:00;;;;;;;;;;;;;;;12.81;60.13;100647.91;4965332;28;19922;-86
2021/01/12 07:53:25;;;;;;;;;;;;;;;12.56;59.86;100647.53;4970771;23;20465;-90
2021/01/12 07:56:00;;;;;;;;;;;;;;;12.59;60.59;100655.47;4966447;23;19979;-92
2021/01/12 07:58:26;;;;;;;;;;;;;;;12.51;59.65;100657.75;4963064;28;19930;-92
2021/01/12 08:00:59;;;;;;;;;;;;;;;12.67;60.38;100674.03;4960386;28;19918;-92
2021/01/12 08:03:28;;;;;;;;;;;;;;;12.95;58.98;100672.34;4958711;28;20377;-91
2021/01/12 08:05:57;;;;;;;;;;;;;;;12.63;59.56;100672.44;4960280;28;19918;-90
2021/01/12 08:08:26;;;;;;;;;;;;;;;12.56;59.48;100687.31;4962836;28;19918;-90
2021/01/12 08:11:01;;;;;;;;;;;;;;;12.56;59.82;100693.66;4969724;28;19918;-91
2021/01/12 08:13:26;;;;;;;;;;;;;;;12.44;59.96;100698.91;4977910;28;20352;-88
2021/01/12 08:15:52;;;;;;;;;;;;;;;12.49;59.15;100702.25;4963862;28;19925;-89
2021/01/12 08:18:18;;;;;;;;;;;;;;;12.21;59.50;100711.94;4963825;28;19918;-85
2021/01/12 08:20:44;;;;;;;;;;;;;;;11.99;59.84;100717.72;4953950;29;19973;-89
2021/01/12 08:23:39;;;;;;;;;;;;;;;12.23;59.64;100723.59;4944535;29;19918;-91
2021/01/12 08:26:10;;;;;;;;;;;;;;;11.77;60.98;100729.69;4946128;28;20401;-88
2021/01/12 08:28:36;;;;;;;;;;;;;;;11.32;61.55;100740.22;4973000;28;19926;-84
2021/01/12 08:31:01;;;;;;;;;;;;;;;11.56;61.06;100742.56;4956079;28;20434;-90
2021/01/12 08:33:29;;;;;;;;;;;;;;;11.78;60.67;100744.13;4975888;28;19921;-86
2021/01/12 08:36:01;;;;;;;;;;;;;;;11.29;62.26;100744.91;4958518;28;19925;-86
2021/01/12 08:38:29;;;;;;;;;;;;;;;12.06;59.93;100751.63;4953636;28;19914;-90
2021/01/12 08:40:54;;;;;;;;;;;;;;;11.35;61.27;100759.03;4962720;28;19919;-90
2021/01/12 08:43:20;;;;;;;;;;;;;;;12.19;59.30;100766.28;4974368;28;19925;-84
2021/01/12 08:45:46;;;;;;;;;;;;;;;12.06;59.79;100770.63;4957558;28;19932;-87
2021/01/12 08:48:13;;;;;;;;;;;;;;;12.31;58.21;100774.69;4962510;28;19923;-84
2021/01/12 08:50:38;;;;;;;;;;;;;;;11.89;59.44;100779.66;4966103;28;19926;-88
2021/01/12 08:53:07;;;;;;;;;;;;;;;11.60;61.20;100795.66;4957153;28;19918;-92
2021/01/12 08:55:32;;;;;;;;;;;;;;;12.24;59.05;100795.84;4965236;28;19953;-89
2021/01/12 08:57:59;;;;;;;;;;;;;;;12.38;58.86;100803.25;4945812;28;19933;-88
2021/01/12 09:00:31;;;;;;;;;;;;;;;11.89;59.18;100801.34;4977118;28;20288;-84
2021/01/12 09:02:57;;;;;;;;;;;;;;;11.81;58.93;100793.63;4954890;28;19986;-91
2021/01/12 09:05:30;;;;;;;;;;;;;;;11.22;60.35;100812.06;4945621;28;19926;-91
2021/01/12 09:08:16;;;;;;;;;;;;;;;12.16;58.70;100811.69;4987653;23;19926;-88
2021/01/12 09:13:52;;;;;;;;;;;;;;;12.31;58.58;100821.69;4944990;28;19968;-88
2021/01/12 09:16:18;;;;;;;;;;;;;;;12.07;59.24;100817.63;4960314;28;19929;-85
2021/01/12 09:18:44;;;;;;;;;;;;;;;13.16;56.66;100829.56;4980395;28;20361;-86
2021/01/12 09:21:09;;;;;;;;;;;;;;;11.63;59.58;100832.53;4944533;28;19926;-88
2021/01/12 09:23:36;;;;;;;;;;;;;;;11.17;60.80;100842.06;4960158;28;19958;-88
2021/01/12 09:26:03;;;;;;;;;;;;;;;11.07;61.15;100850.75;4956393;28;19922;-86
2021/01/12 09:28:32;;;;;;;;;;;;;;;10.91;61.50;100847.91;4959769;28;19940;-85
2021/01/12 09:31:13;;;;;;;;;;;;;;;10.97;61.12;100858.41;4959418;28;20016;-88
2021/01/12 09:33:49;;;;;;;;;;;;;;;10.48;62.41;100866.19;4961176;28;19922;-91
2021/01/12 09:36:18;;;;;;;;;;;;;;;11.18;60.17;100868.19;4953082;28;20281;-90
2021/01/12 09:38:46;;;;;;;;;;;;;;;10.91;60.61;100873.13;4957241;28;20012;-89
2021/01/12 09:41:13;;;;;;;;;;;;;;;11.98;58.36;100884.06;4959316;28;19918;-85
2021/01/12 09:43:38;;;;;;;;;;;;;;;11.38;58.63;100893.38;4959899;28;19919;-86
2021/01/12 09:46:11;;;;;;;;;;;;;;;12.05;57.43;100899.91;4963059;28;19918;-91
2021/01/12 09:48:37;;;;;;;;;;;;;;;11.87;58.18;100900.84;4958424;28;19922;-89
2021/01/12 09:51:02;;;;;;;;;;;;;;;11.72;58.90;100905.25;4962652;28;19993;-89
2021/01/12 09:53:28;;;;;;;;;;;;;;;11.64;59.20;100908.34;4952148;28;19961;-87
2021/01/12 09:55:53;;;;;;;;;;;;;;;11.92;58.40;100925.88;4961131;28;19918;-84
2021/01/12 09:58:18;;;;;;;;;;;;;;;12.11;57.89;100924.94;4945994;29;19922;-85
2021/01/12 10:00:43;;;;;;;;;;;;;;;11.92;57.99;100933.16;4953460;28;20434;-85
2021/01/12 10:03:09;;;;;;;;;;;;;;;11.86;58.21;100931.63;4950134;28;20392;-88
2021/01/12 10:05:56;;;;;;;;;;;;;;;11.41;59.05;100933.88;4960898;28;19929;-95
2021/01/12 10:08:25;;;;;;;;;;;;;;;12.14;57.10;100949.19;4944073;28;20411;-91
2021/01/12 10:10:50;;;;;;;;;;;;;;;11.44;58.80;100944.53;4990037;28;19922;-90
2021/01/12 10:13:15;;;;;;;;;;;;;;;12.27;56.08;100957.56;4971067;28;20299;-89
2021/01/12 10:15:41;;;;;;;;;;;;;;;13.15;54.29;100952.75;4949178;29;19919;-88
2021/01/12 10:18:06;;;;;;;;;;;;;;;12.77;54.01;100962.97;4958770;28;19922;-88
2021/01/12 10:20:32;;;;;;;;;;;;;;;12.22;55.68;100968.66;4955881;28;20045;-86
2021/01/12 10:23:07;;;;;;;;;;;;;;;11.92;54.05;100976.53;4972385;28;19922;-93
2021/01/12 10:25:45;;;;;;;;;;;;;;;11.82;53.84;100981.53;5003894;23;19960;-91
2021/01/12 10:28:10;;;;;;;;;;;;;;;12.05;52.95;100981.25;4944665;28;19918;-89
2021/01/12 10:30:35;;;;;;;;;;;;;;;11.53;53.84;100982.06;4946781;28;19942;-87
2021/01/12 10:33:01;;;;;;;;;;;;;;;12.39;51.93;100986.75;4976532;28;19993;-93
2021/01/12 10:35:26;;;;;;;;;;;;;;;12.56;51.35;100985.84;4955738;28;19926;-87
2021/01/12 10:37:51;;;;;;;;;;;;;;;12.37;51.40;100991.41;4966391;28;19925;-88
2021/01/12 10:40:17;;;;;;;;;;;;;;;13.45;48.94;100986.38;4952640;28;19919;-87
2021/01/12 10:45:49;;;;;;;;;;;;;;;13.93;47.93;100993.59;4967448;28;19918;-91
2021/01/12 10:48:14;;;;;;;;;;;;;;;14.04;46.72;100998.38;4942303;28;20225;-89
2021/01/12 10:50:40;;;;;;;;;;;;;;;13.55;46.45;100997.59;4955035;29;19918;-90
2021/01/12 10:53:05;;;;;;;;;;;;;;;13.84;47.45;101003.16;4948138;28;20005;-90
2021/01/12 10:55:30;;;;;;;;;;;;;;;13.59;45.67;100998.31;4948533;29;19937;-90
2021/01/12 10:58:00;;;;;;;;;;;;;;;13.00;47.89;101006.09;4954315;28;19941;-92
2021/01/12 11:00:25;;;;;;;;;;;;;;;12.79;47.98;101024.44;4942638;28;19918;-90
2021/01/12 11:02:52;;;;;;;;;;;;;;;11.91;46.95;101031.69;4953661;29;20380;-89
2021/01/12 11:05:19;;;;;;;;;;;;;;;11.41;48.63;101028.69;4949779;28;19918;-89
2021/01/12 11:07:48;;;;;;;;;;;;;;;11.51;47.76;101037.25;4960378;28;20008;-92
2021/01/12 11:10:13;;;;;;;;;;;;;;;12.16;46.77;101031.38;4960411;28;19982;-92
2021/01/12 11:12:42;;;;;;;;;;;;;;;13.90;45.24;101030.00;4960426;28;19980;-90
2021/01/12 11:15:08;;;;;;;;;;;;;;;14.53;42.56;101023.50;4960140;28;19935;-92
2021/01/12 11:17:34;;;;;;;;;;;;;;;14.30;41.78;101029.50;4959937;28;19984;-92
2021/01/12 11:19:59;;;;;;;;;;;;;;;12.37;44.91;101040.22;4960120;28;19919;-91
2021/01/12 11:22:27;;;;;;;;;;;;;;;11.29;45.96;101043.72;4958774;28;19918;-89
2021/01/12 11:24:54;;;;;;;;;;;;;;;11.59;47.32;101048.59;4959082;28;19995;-88
2021/01/12 11:27:19;;;;;;;;;;;;;;;11.99;46.76;101049.38;4962096;28;19918;-89
2021/01/12 11:29:44;;;;;;;;;;;;;;;11.68;45.81;101050.88;4958896;28;19968;-87
2021/01/12 11:32:09;;;;;;;;;;;;;;;12.21;44.25;101045.56;4975529;28;20284;-87
2021/01/12 11:34:35;;;;;;;;;;;;;;;11.01;43.82;101049.53;4959287;28;20368;-90
2021/01/12 11:37:02;;;;;;;;;;;;;;;11.89;46.14;101050.75;4954048;28;19926;-92
2021/01/12 11:39:35;;;;;;;;;;;;;;;11.26;45.41;101054.69;4948667;28;19922;-91
2021/01/12 11:42:00;;;;;;;;;;;;;;;11.59;44.59;101055.84;4957330;28;19922;-89
2021/01/12 11:44:25;;;;;;;;;;;;;;;11.96;43.45;101063.09;4965820;28;19918;-88
2021/01/12 11:46:51;;;;;;;;;;;;;;;11.45;43.70;101051.09;4940779;29;19985;-87
2021/01/12 11:49:19;;;;;;;;;;;;;;;12.22;44.19;101063.59;4948642;28;19926;-90
2021/01/12 11:51:46;;;;;;;;;;;;;;;11.81;43.91;101064.69;4952885;28;19958;-90
2021/01/12 11:54:11;;;;;;;;;;;;;;;10.91;45.95;101059.03;4952841;29;19937;-90
2021/01/12 11:56:38;;;;;;;;;;;;;;;10.50;47.36;101050.94;4956939;29;19985;-91
2021/01/12 11:59:07;;;;;;;;;;;;;;;11.16;46.43;101062.34;4951163;29;19945;-91
2021/01/12 12:01:48;;;;;;;;;;;;;;;10.61;48.22;101060.34;4955843;28;20376;-93
2021/01/12 12:04:14;;;;;;;;;;;;;;;10.40;48.68;101067.56;4962642;28;19922;-88
2021/01/12 12:06:42;;;;;;;;;;;;;;;10.67;48.45;101066.41;4946351;29;19919;-90
2021/01/12 12:09:11;;;;;;;;;;;;;;;10.84;47.93;101080.09;4941592;28;19961;-93
2021/01/12 12:11:37;;;;;;;;;;;;;;;11.04;47.66;101068.34;4940741;29;19918;-91
2021/01/12 12:14:04;;;;;;;;;;;;;;;11.14;46.50;101079.63;4955325;28;19925;-89
2021/01/12 12:16:29;;;;;;;;;;;;;;;11.97;43.38;101075.69;4966251;28;19918;-91
2021/01/12 12:18:54;;;;;;;;;;;;;;;13.08;40.97;101069.91;4955230;28;19929;-88
2021/01/12 12:21:55;;;;;;;;;;;;;;;13.59;39.57;101066.28;4982441;28;19914;-91
2021/01/12 12:24:25;;;;;;;;;;;;;;;13.74;39.07;101068.09;4916488;29;19965;-90
2021/01/12 12:26:53;;;;;;;;;;;;;;;13.72;38.26;101059.13;4972768;28;19926;-90
2021/01/12 12:29:31;;;;;;;;;;;;;;;13.85;37.67;101059.31;4966400;28;20013;-95
2021/01/12 12:32:04;;;;;;;;;;;;;;;12.89;40.29;101070.06;4985094;28;19944;-89
2021/01/12 12:34:29;;;;;;;;;;;;;;;11.66;42.03;101069.03;4969543;28;19918;-90
2021/01/12 12:36:55;;;;;;;;;;;;;;;12.57;42.01;101077.16;4969570;28;20020;-89
2021/01/12 12:39:20;;;;;;;;;;;;;;;11.92;41.80;101077.69;4971783;28;19954;-89
2021/01/12 12:41:46;;;;;;;;;;;;;;;12.72;41.43;101070.06;4950232;29;20348;-88
2021/01/12 12:44:33;;;;;;;;;;;;;;;11.99;42.98;101075.63;4957944;28;19922;-91
2021/01/12 12:47:02;;;;;;;;;;;;;;;11.90;44.46;101074.19;4930964;29;20022;-89
2021/01/12 12:49:27;;;;;;;;;;;;;;;11.32;45.43;101078.78;4904802;29;19950;-87
2021/01/12 12:51:52;;;;;;;;;;;;;;;11.74;44.40;101079.47;4901757;29;19919;-88
2021/01/12 12:54:20;;;;;;;;;;;;;;;11.82;43.86;101087.22;4902389;29;19930;-89
2021/01/12 12:56:53;;;;;;;;;;;;;;;11.82;43.94;101087.22;4916860;29;20369;-86
2021/01/12 12:59:18;;;;;;;;;;;;;;;11.38;45.35;101074.00;4911871;29;19922;-87
2021/01/12 13:01:47;;;;;;;;;;;;;;;10.39;47.02;101086.56;4906930;29;19955;-88
2021/01/12 13:04:12;;;;;;;;;;;;;;;11.11;47.02;101088.78;4902270;29;19920;-89
2021/01/12 13:06:38;;;;;;;;;;;;;;;11.14;45.82;101082.31;4905578;29;19954;-89
2021/01/12 13:09:03;;;;;;;;;;;;;;;11.43;45.27;101080.06;4905202;29;20403;-87